Time;durP1;ratioP1;P1;durP2;ratioP2;P2;SDS_P1;SDS_P2;PMS_P1;PMS_P2;Temp;Humidity;BMP_temperature;BMP_pressure;BME280_temperature;BME280_humidity;BME280_pressure;Samples;Min_cycle;Max_cycle;Signal;HPM_P1;HPM_P2
2022/09/05 00:00:39;;;;;;;;;;;;;;;12.19;100.00;101606.44;3057994;19;1231;-45
2022/09/05 00:01:49;;;;;;;;;;;;;;;12.14;100.00;101594.22;3058365;19;915;-48
2022/09/05 00:02:57;;;;;;;;;;;;;;;12.11;100.00;101600.56;3058023;19;1856;-44
2022/09/05 00:04:09;;;;;;;;;;;;;;;12.10;100.00;101603.31;3059108;19;1056;-46
2022/09/05 00:05:40;;;;;;;;;;;;;;;12.06;100.00;101601.75;3058726;19;896;-48
2022/09/05 00:07:24;;;;;;;;;;;;;;;12.05;100.00;101600.03;3059033;19;944;-45
2022/09/05 00:08:57;;;;;;;;;;;;;;;12.00;100.00;101602.91;3058067;19;1145;-45
2022/09/05 00:10:05;;;;;;;;;;;;;;;11.98;100.00;101603.94;3058260;19;862;-48
2022/09/05 00:11:16;;;;;;;;;;;;;;;11.95;100.00;101598.75;3057626;19;1430;-48
2022/09/05 00:12:38;;;;;;;;;;;;;;;11.94;100.00;101602.38;3058950;19;1141;-46
2022/09/05 00:13:44;;;;;;;;;;;;;;;11.92;100.00;101598.91;3058001;19;857;-45
2022/09/05 00:14:49;;;;;;;;;;;;;;;11.87;100.00;101602.66;3057870;19;924;-47
2022/09/05 00:16:16;;;;;;;;;;;;;;;11.83;100.00;101606.41;3058724;19;936;-45
2022/09/05 00:17:27;;;;;;;;;;;;;;;11.80;100.00;101595.88;3058876;19;845;-46
2022/09/05 00:18:59;;;;;;;;;;;;;;;11.77;100.00;101598.72;3058684;19;1240;-48
2022/09/05 00:20:42;;;;;;;;;;;;;;;11.74;100.00;101601.50;3058769;19;1157;-45
2022/09/05 00:22:18;;;;;;;;;;;;;;;11.74;100.00;101595.28;3058750;19;1225;-47
2022/09/05 00:24:01;;;;;;;;;;;;;;;11.75;100.00;101597.91;3056829;19;1851;-46
2022/09/05 00:25:41;;;;;;;;;;;;;;;11.79;100.00;101599.50;3058129;19;1257;-48
2022/09/05 00:27:04;;;;;;;;;;;;;;;11.83;100.00;101600.22;3058705;19;1249;-48
2022/09/05 00:28:14;;;;;;;;;;;;;;;11.86;100.00;101592.91;3058869;19;925;-45
2022/09/05 00:29:49;;;;;;;;;;;;;;;11.92;100.00;101598.91;3058472;19;1043;-46
2022/09/05 00:31:17;;;;;;;;;;;;;;;11.96;100.00;101597.78;3055727;19;1015;-46
2022/09/05 00:32:44;;;;;;;;;;;;;;;11.96;100.00;101605.81;3057932;19;937;-45
2022/09/05 00:33:56;;;;;;;;;;;;;;;11.96;100.00;101608.50;3058094;19;885;-47
2022/09/05 00:35:00;;;;;;;;;;;;;;;11.93;100.00;101606.00;3058873;19;913;-47
2022/09/05 00:36:22;;;;;;;;;;;;;;;11.89;100.00;101605.25;3058765;19;1254;-44
2022/09/05 00:37:47;;;;;;;;;;;;;;;11.88;100.00;101603.53;3057574;19;1444;-47
2022/09/05 00:39:00;;;;;;;;;;;;;;;11.87;100.00;101607.13;3058660;19;952;-46
2022/09/05 00:40:16;;;;;;;;;;;;;;;11.85;100.00;101603.66;3057158;19;937;-47
2022/09/05 00:41:20;;;;;;;;;;;;;;;11.82;100.00;101593.16;3058154;19;1007;-45
2022/09/05 00:42:24;;;;;;;;;;;;;;;11.80;100.00;101600.38;3057670;19;983;-47
2022/09/05 00:43:30;;;;;;;;;;;;;;;11.78;100.00;101592.41;3057466;19;1871;-48
2022/09/05 00:44:35;;;;;;;;;;;;;;;11.76;100.00;101593.44;3057633;19;1145;-45
2022/09/05 00:45:42;;;;;;;;;;;;;;;11.74;100.00;101596.13;3057676;19;948;-45
2022/09/05 00:47:16;;;;;;;;;;;;;;;11.73;100.00;101583.72;3057744;19;992;-45
2022/09/05 00:48:24;;;;;;;;;;;;;;;11.70;100.00;101583.88;3057031;19;1533;-45
2022/09/05 00:49:39;;;;;;;;;;;;;;;11.67;100.00;101592.03;3058695;19;926;-44
2022/09/05 00:50:49;;;;;;;;;;;;;;;11.63;100.00;101587.78;3058327;19;977;-46
2022/09/05 00:51:54;;;;;;;;;;;;;;;11.58;100.00;101584.47;3057679;19;940;-45
2022/09/05 00:53:05;;;;;;;;;;;;;;;11.53;100.00;101584.69;3057621;19;886;-44
2022/09/05 00:54:11;;;;;;;;;;;;;;;11.50;100.00;101586.63;3057442;19;972;-46
2022/09/05 00:55:20;;;;;;;;;;;;;;;11.46;100.00;101585.06;3057687;19;964;-46
2022/09/05 00:56:43;;;;;;;;;;;;;;;11.42;100.00;101583.47;3057572;19;944;-48
2022/09/05 00:57:45;;;;;;;;;;;;;;;11.40;100.00;101590.69;3057970;19;921;-46
2022/09/05 00:58:57;;;;;;;;;;;;;;;11.35;100.00;101584.72;3058414;19;920;-46
2022/09/05 01:00:02;;;;;;;;;;;;;;;11.31;100.00;101575.09;3057533;19;1283;-46
2022/09/05 01:01:09;;;;;;;;;;;;;;;11.28;100.00;101586.78;3057258;19;905;-47
2022/09/05 01:02:40;;;;;;;;;;;;;;;11.23;100.00;101582.63;3057483;19;758;-47
2022/09/05 01:03:55;;;;;;;;;;;;;;;11.17;100.00;101579.28;3057042;19;1854;-46
2022/09/05 01:04:59;;;;;;;;;;;;;;;11.04;100.00;101566.56;3057623;19;961;-50
2022/09/05 01:06:17;;;;;;;;;;;;;;;11.07;100.00;101580.66;3058483;19;857;-45
2022/09/05 01:07:22;;;;;;;;;;;;;;;11.00;100.00;101586.31;3057356;19;953;-46
2022/09/05 01:08:45;;;;;;;;;;;;;;;11.00;100.00;101583.66;3057216;19;923;-44
2022/09/05 01:10:11;;;;;;;;;;;;;;;10.97;100.00;101592.69;3058094;19;893;-45
2022/09/05 01:11:13;;;;;;;;;;;;;;;10.95;100.00;101583.88;3056313;19;1492;-48
2022/09/05 01:12:29;;;;;;;;;;;;;;;10.92;100.00;101584.00;3058063;19;1428;-48
2022/09/05 01:13:31;;;;;;;;;;;;;;;10.90;100.00;101574.31;3058158;19;845;-46
2022/09/05 01:14:38;;;;;;;;;;;;;;;10.88;100.00;101576.19;3058147;19;1229;-45
2022/09/05 01:15:52;;;;;;;;;;;;;;;10.87;100.00;101575.31;3057869;19;1010;-44
2022/09/05 01:16:57;;;;;;;;;;;;;;;10.84;100.00;101586.16;3058139;19;1004;-47
2022/09/05 01:18:08;;;;;;;;;;;;;;;10.82;100.00;101582.69;3058353;19;1233;-45
2022/09/05 01:19:32;;;;;;;;;;;;;;;10.80;100.00;101589.91;3057975;19;1007;-45
2022/09/05 01:20:45;;;;;;;;;;;;;;;10.76;100.00;101588.28;3058083;19;993;-46
2022/09/05 01:21:53;;;;;;;;;;;;;;;10.75;100.00;101586.56;3056908;19;1245;-48
2022/09/05 01:23:04;;;;;;;;;;;;;;;10.73;100.00;101588.47;3055488;19;1247;-47
2022/09/05 01:24:14;;;;;;;;;;;;;;;10.70;100.00;101588.59;3055323;19;1866;-46
2022/09/05 01:25:28;;;;;;;;;;;;;;;10.65;100.00;101593.25;3056979;19;1015;-47
2022/09/05 01:26:51;;;;;;;;;;;;;;;10.63;100.00;101592.44;3057057;19;918;-47
2022/09/05 01:27:56;;;;;;;;;;;;;;;10.59;100.00;101585.53;3057337;19;857;-46
2022/09/05 01:29:20;;;;;;;;;;;;;;;10.57;100.00;101582.06;3057432;19;956;-47
2022/09/05 01:30:23;;;;;;;;;;;;;;;10.55;100.00;101589.25;3056831;19;932;-47
2022/09/05 01:31:46;;;;;;;;;;;;;;;10.54;100.00;101588.38;3056006;19;942;-46
2022/09/05 01:33:18;;;;;;;;;;;;;;;10.51;100.00;101592.97;3056231;19;949;-48
2022/09/05 01:34:34;;;;;;;;;;;;;;;10.52;100.00;101589.38;3055354;19;1891;-46
2022/09/05 01:35:42;;;;;;;;;;;;;;;10.50;100.00;101581.47;3055771;19;1693;-46
2022/09/05 01:37:09;;;;;;;;;;;;;;;10.46;100.00;101590.53;3057366;19;1641;-44
2022/09/05 01:38:34;;;;;;;;;;;;;;;10.42;100.00;101589.78;3056422;19;877;-44
2022/09/05 01:39:49;;;;;;;;;;;;;;;10.41;100.00;101590.72;3057104;19;873;-47
2022/09/05 01:41:18;;;;;;;;;;;;;;;10.34;100.00;101591.94;3056274;19;972;-48
2022/09/05 01:42:30;;;;;;;;;;;;;;;10.31;100.00;101586.72;3055611;19;866;-48
2022/09/05 01:43:32;;;;;;;;;;;;;;;10.29;100.00;101587.72;3056985;19;949;-44
2022/09/05 01:44:43;;;;;;;;;;;;;;;10.26;100.00;101588.75;3055643;19;1843;-44
2022/09/05 01:45:52;;;;;;;;;;;;;;;10.25;100.00;101580.78;3056978;19;1027;-46
2022/09/05 01:46:57;;;;;;;;;;;;;;;10.23;100.00;101583.53;3055766;19;976;-47
2022/09/05 01:48:02;;;;;;;;;;;;;;;10.28;100.00;101585.97;3056263;19;948;-44
2022/09/05 01:49:29;;;;;;;;;;;;;;;10.27;100.00;101589.56;3056771;19;905;-45
2022/09/05 01:50:34;;;;;;;;;;;;;;;10.22;100.00;101580.91;3055911;19;1134;-46
2022/09/05 01:51:54;;;;;;;;;;;;;;;10.18;100.00;101585.50;3056186;19;884;-45
2022/09/05 01:53:14;;;;;;;;;;;;;;;10.13;100.00;101590.16;3055563;19;1023;-46
2022/09/05 01:54:22;;;;;;;;;;;;;;;10.08;100.00;101587.66;3056326;19;941;-44
2022/09/05 01:55:28;;;;;;;;;;;;;;;10.04;100.00;101587.84;3055960;19;1222;-46
2022/09/05 01:56:45;;;;;;;;;;;;;;;10.01;100.00;101588.00;3056099;19;896;-48
2022/09/05 01:57:47;;;;;;;;;;;;;;;9.98;100.00;101582.78;3056963;19;1039;-43
2022/09/05 01:59:10;;;;;;;;;;;;;;;9.96;100.00;101580.19;3056456;19;849;-47
2022/09/05 02:00:13;;;;;;;;;;;;;;;9.93;100.00;101582.97;3056869;19;937;-46
2022/09/05 02:01:20;;;;;;;;;;;;;;;9.92;100.00;101583.88;3055510;19;1218;-46
2022/09/05 02:02:51;;;;;;;;;;;;;;;9.91;100.00;101583.94;3056395;19;867;-44
2022/09/05 02:04:10;;;;;;;;;;;;;;;9.89;100.00;101588.50;3056665;19;1296;-44
2022/09/05 02:05:27;;;;;;;;;;;;;;;9.86;100.00;101583.28;3055673;19;1035;-44
2022/09/05 02:06:58;;;;;;;;;;;;;;;9.84;100.00;101579.81;3056452;19;1039;-44
2022/09/05 02:08:36;;;;;;;;;;;;;;;9.81;100.00;101579.94;3055992;19;889;-48
2022/09/05 02:10:01;;;;;;;;;;;;;;;9.75;100.00;101583.72;3055636;19;976;-45
2022/09/05 02:11:11;;;;;;;;;;;;;;;9.72;100.00;101579.38;3054487;19;1458;-44
2022/09/05 02:12:13;;;;;;;;;;;;;;;9.71;100.00;101585.66;3055672;19;960;-45
2022/09/05 02:13:17;;;;;;;;;;;;;;;9.69;100.00;101576.84;3055172;19;1020;-47
2022/09/05 02:14:37;;;;;;;;;;;;;;;9.68;100.00;101580.44;3056705;19;897;-45
2022/09/05 02:15:43;;;;;;;;;;;;;;;9.64;100.00;101577.97;3056468;19;893;-45
2022/09/05 02:17:06;;;;;;;;;;;;;;;9.59;100.00;101582.59;3056714;19;901;-48
2022/09/05 02:18:29;;;;;;;;;;;;;;;9.53;100.00;101581.06;3055723;19;972;-43
2022/09/05 02:19:31;;;;;;;;;;;;;;;9.48;100.00;101577.72;3055424;19;956;-47
2022/09/05 02:20:36;;;;;;;;;;;;;;;9.46;100.00;101574.22;3055564;19;1073;-44
2022/09/05 02:21:45;;;;;;;;;;;;;;;9.40;100.00;101582.47;3055985;19;1024;-47
2022/09/05 02:23:14;;;;;;;;;;;;;;;9.34;100.00;101577.38;2908380;19;2889401;-45
2022/09/05 02:24:40;;;;;;;;;;;;;;;9.22;100.00;101570.72;3055984;19;1879;-45
2022/09/05 02:25:45;;;;;;;;;;;;;;;9.27;100.00;101581.22;3056195;19;988;-46
2022/09/05 02:27:12;;;;;;;;;;;;;;;9.22;100.00;101580.50;3056381;19;890;-45
2022/09/05 02:28:34;;;;;;;;;;;;;;;9.15;100.00;101579.03;3056207;19;976;-46
2022/09/05 02:29:57;;;;;;;;;;;;;;;9.10;100.00;101578.31;3056412;19;1051;-44
2022/09/05 02:31:00;;;;;;;;;;;;;;;9.08;100.00;101577.50;3057099;19;1015;-49
2022/09/05 02:32:23;;;;;;;;;;;;;;;9.02;100.00;101575.97;3055776;19;953;-45
2022/09/05 02:33:30;;;;;;;;;;;;;;;8.99;100.00;101581.38;3056211;19;853;-47
2022/09/05 02:34:46;;;;;;;;;;;;;;;8.93;100.00;101579.84;3055987;19;1152;-48
2022/09/05 02:36:09;;;;;;;;;;;;;;;8.91;100.00;101581.69;3056529;19;874;-44
2022/09/05 02:37:16;;;;;;;;;;;;;;;8.84;100.00;101569.50;3057138;19;886;-45
2022/09/05 02:38:49;;;;;;;;;;;;;;;8.81;100.00;101574.97;3056009;19;960;-46
2022/09/05 02:41:50;;;;;;;;;;;;;;;8.74;100.00;101573.44;3045871;19;1965;-47
2022/09/05 02:43:21;;;;;;;;;;;;;;;8.69;100.00;101570.09;3054785;19;1226;-45
2022/09/05 02:44:52;;;;;;;;;;;;;;;8.64;100.00;101575.59;3056630;19;1833;-43
2022/09/05 02:46:18;;;;;;;;;;;;;;;8.59;100.00;101574.00;3057479;19;904;-45
2022/09/05 02:47:32;;;;;;;;;;;;;;;8.54;100.00;101568.84;3055984;19;1050;-47
2022/09/05 02:48:43;;;;;;;;;;;;;;;8.50;100.00;101574.34;3055710;19;1002;-45
2022/09/05 02:49:44;;;;;;;;;;;;;;;8.45;100.00;101573.66;3056584;19;936;-45
2022/09/05 02:51:12;;;;;;;;;;;;;;;8.41;100.00;101569.34;3057157;19;1033;-46
2022/09/05 02:52:35;;;;;;;;;;;;;;;8.41;100.00;101572.00;3056918;19;956;-47
2022/09/05 02:54:06;;;;;;;;;;;;;;;8.36;100.00;101565.97;3056340;19;1654;-47
2022/09/05 02:55:33;;;;;;;;;;;;;;;8.29;100.00;101571.47;3059133;19;954;-47
2022/09/05 02:57:06;;;;;;;;;;;;;;;8.27;100.00;101570.66;3059155;19;1086;-46
2022/09/05 02:58:28;;;;;;;;;;;;;;;8.25;100.00;101569.84;3060502;19;805;-47
2022/09/05 03:00:01;;;;;;;;;;;;;;;8.24;100.00;101575.22;3060443;19;1147;-46
2022/09/05 03:01:08;;;;;;;;;;;;;;;8.22;100.00;101574.38;3058865;19;1027;-47
2022/09/05 03:02:22;;;;;;;;;;;;;;;8.20;100.00;101566.50;3059228;19;983;-48
2022/09/05 03:03:33;;;;;;;;;;;;;;;8.20;100.00;101565.63;3059263;19;990;-45
2022/09/05 03:04:42;;;;;;;;;;;;;;;8.21;100.00;101568.19;3060156;19;915;-44
2022/09/05 03:06:02;;;;;;;;;;;;;;;8.22;100.00;101571.72;3059676;19;1012;-48
2022/09/05 03:07:22;;;;;;;;;;;;;;;8.18;100.00;101573.66;3059280;19;961;-45
2022/09/05 03:08:45;;;;;;;;;;;;;;;8.16;100.00;101572.81;3059470;19;905;-44
2022/09/05 03:09:54;;;;;;;;;;;;;;;8.13;100.00;101570.25;3058984;19;943;-44
2022/09/05 03:11:13;;;;;;;;;;;;;;;8.11;100.00;101568.56;3059290;19;960;-46
2022/09/05 03:12:34;;;;;;;;;;;;;;;8.09;100.00;101567.78;3059053;19;1676;-44
2022/09/05 03:13:41;;;;;;;;;;;;;;;8.06;100.00;101574.06;3059504;19;878;-44
2022/09/05 03:15:13;;;;;;;;;;;;;;;8.03;100.00;101566.19;3059997;19;916;-45
2022/09/05 03:16:26;;;;;;;;;;;;;;;7.99;100.00;101567.19;3059773;19;941;-48
2022/09/05 03:17:31;;;;;;;;;;;;;;;7.98;100.00;101565.47;3059921;19;777;-44
2022/09/05 03:18:53;;;;;;;;;;;;;;;7.97;100.00;101561.06;3059012;19;1007;-47
2022/09/05 03:19:55;;;;;;;;;;;;;;;7.93;100.00;101568.28;3059639;19;964;-45
2022/09/05 03:21:03;;;;;;;;;;;;;;;7.92;100.00;101577.19;3060006;19;848;-47
2022/09/05 03:22:12;;;;;;;;;;;;;;;7.88;100.00;101564.91;3059740;19;753;-47
2022/09/05 03:23:29;;;;;;;;;;;;;;;7.87;100.00;101565.81;3059694;19;1007;-47
2022/09/05 03:24:39;;;;;;;;;;;;;;;7.82;100.00;101559.81;3058675;19;1039;-48
2022/09/05 03:26:01;;;;;;;;;;;;;;;7.81;100.00;101565.16;3057952;19;1854;-47
2022/09/05 03:27:22;;;;;;;;;;;;;;;7.77;100.00;101563.53;3059983;19;1031;-47
2022/09/05 03:28:32;;;;;;;;;;;;;;;7.73;100.00;101576.03;3059426;19;1022;-45
2022/09/05 03:29:53;;;;;;;;;;;;;;;7.71;100.00;101571.72;3059850;19;1035;-46
2022/09/05 03:31:20;;;;;;;;;;;;;;;7.65;100.00;101564.78;3059628;19;872;-45
2022/09/05 03:32:37;;;;;;;;;;;;;;;7.62;100.00;101566.66;3059696;19;861;-47
2022/09/05 03:33:52;;;;;;;;;;;;;;;7.57;100.00;101567.72;3059244;19;876;-44
2022/09/05 03:35:09;;;;;;;;;;;;;;;7.55;100.00;101568.66;3058845;19;1213;-44
2022/09/05 03:36:26;;;;;;;;;;;;;;;7.50;100.00;101562.63;3058933;19;956;-47
2022/09/05 03:37:31;;;;;;;;;;;;;;;7.47;100.00;101563.59;3058485;19;1014;-46
2022/09/05 03:38:38;;;;;;;;;;;;;;;7.44;100.00;101563.69;3058604;19;1096;-44
2022/09/05 03:39:43;;;;;;;;;;;;;;;7.39;100.00;101570.91;3059137;19;884;-46
2022/09/05 03:40:51;;;;;;;;;;;;;;;7.38;100.00;101569.19;3059401;19;1240;-47
2022/09/05 03:42:00;;;;;;;;;;;;;;;7.34;100.00;101566.69;3058531;19;1571;-46
2022/09/05 03:43:16;;;;;;;;;;;;;;;7.30;100.00;101575.66;3058447;19;1027;-47
2022/09/05 03:44:30;;;;;;;;;;;;;;;7.28;100.00;101572.16;3058919;19;1007;-48
2022/09/05 03:45:42;;;;;;;;;;;;;;;7.22;100.00;101567.94;3059052;19;1856;-45
2022/09/05 03:46:47;;;;;;;;;;;;;;;7.19;100.00;101566.25;3059535;19;1191;-47
2022/09/05 03:47:58;;;;;;;;;;;;;;;7.12;100.00;101555.88;3059735;19;1756;-45
2022/09/05 03:49:22;;;;;;;;;;;;;;;7.15;100.00;101566.38;3058702;19;1537;-44
2022/09/05 03:51:06;;;;;;;;;;;;;;;7.11;100.00;101570.03;3059501;19;1270;-45
2022/09/05 03:52:30;;;;;;;;;;;;;;;7.09;100.00;101567.44;3059552;19;1204;-45
2022/09/05 03:54:14;;;;;;;;;;;;;;;7.09;100.00;101571.88;3059155;19;1039;-50
2022/09/05 03:55:44;;;;;;;;;;;;;;;7.02;100.00;101570.28;3059184;19;1785;-46
2022/09/05 03:57:30;;;;;;;;;;;;;;;6.94;100.00;101561.69;3058931;19;1694;-47
2022/09/05 03:59:06;;;;;;;;;;;;;;;6.96;100.00;101575.81;3058851;19;805;-45
2022/09/05 04:00:22;;;;;;;;;;;;;;;6.90;100.00;101573.31;3058526;19;1051;-44
2022/09/05 04:01:26;;;;;;;;;;;;;;;6.93;100.00;101570.56;3059172;19;1003;-43
2022/09/05 04:02:51;;;;;;;;;;;;;;;6.91;100.00;101561.78;3058690;19;1002;-47
2022/09/05 04:04:27;;;;;;;;;;;;;;;6.96;100.00;101562.53;3059036;19;971;-45
2022/09/05 04:06:28;;;;;;;;;;;;;;;6.96;100.00;101570.50;3057334;19;1865;-44
2022/09/05 04:07:52;;;;;;;;;;;;;;;6.96;100.00;101562.53;3057726;19;937;-45
2022/09/05 04:09:26;;;;;;;;;;;;;;;7.00;100.00;101556.22;3057517;19;1439;-48
2022/09/05 04:10:57;;;;;;;;;;;;;;;7.07;100.00;101561.31;3060881;19;1735;-48
2022/09/05 04:12:00;;;;;;;;;;;;;;;7.10;100.00;101557.69;3058387;19;920;-47
2022/09/05 04:13:10;;;;;;;;;;;;;;;7.14;100.00;101559.31;3058336;19;999;-44
2022/09/05 04:14:26;;;;;;;;;;;;;;;7.22;100.00;101563.50;3058236;19;928;-47
2022/09/05 04:15:50;;;;;;;;;;;;;;;7.90;100.00;101567.50;3058505;19;968;-44
2022/09/05 04:16:57;;;;;;;;;;;;;;;9.06;100.00;101568.72;3058509;19;1013;-48
2022/09/05 04:18:07;;;;;;;;;;;;;;;9.65;100.00;101585.91;3058294;19;1767;-48
2022/09/05 04:19:12;;;;;;;;;;;;;;;10.16;100.00;101591.78;3059580;19;940;-46
2022/09/05 04:20:22;;;;;;;;;;;;;;;10.53;100.00;101612.47;3057188;19;1706;-45
2022/09/05 04:21:28;;;;;;;;;;;;;;;10.80;100.00;101621.94;3056560;19;1343;-44
2022/09/05 04:22:38;;;;;;;;;;;;;;;11.01;100.00;101623.66;3057077;19;1516;-46
2022/09/05 04:23:43;;;;;;;;;;;;;;;11.18;100.00;101629.09;3056212;19;1532;-45
2022/09/05 04:24:54;;;;;;;;;;;;;;;11.29;100.00;101641.09;3057132;19;1316;-44
2022/09/05 04:26:14;;;;;;;;;;;;;;;11.26;100.00;101635.88;3058004;19;1853;-46
2022/09/05 04:27:25;;;;;;;;;;;;;;;11.14;100.00;101648.88;3056760;19;1670;-47
2022/09/05 04:28:34;;;;;;;;;;;;;;;10.94;100.00;101648.03;3057570;19;1582;-49
2022/09/05 04:29:48;;;;;;;;;;;;;;;10.56;100.00;101649.72;3058311;19;1704;-46
2022/09/05 04:30:51;;;;;;;;;;;;;;;10.22;100.00;101648.47;3056668;19;1711;-46
2022/09/05 04:32:00;;;;;;;;;;;;;;;10.03;100.00;101650.97;3057986;19;905;-46
2022/09/05 04:33:26;;;;;;;;;;;;;;;9.88;100.00;101640.09;3057756;19;1055;-48
2022/09/05 04:34:46;;;;;;;;;;;;;;;9.81;100.00;101643.91;3058045;19;919;-45
2022/09/05 04:35:51;;;;;;;;;;;;;;;9.75;100.00;101645.91;3058136;19;943;-45
2022/09/05 04:37:03;;;;;;;;;;;;;;;9.69;100.00;101640.81;3058323;19;974;-46
2022/09/05 04:38:12;;;;;;;;;;;;;;;9.62;100.00;101642.00;3058609;19;951;-45
2022/09/05 04:39:19;;;;;;;;;;;;;;;9.53;100.00;101645.03;3057733;19;993;-48
2022/09/05 04:40:40;;;;;;;;;;;;;;;9.42;100.00;101641.03;3058125;19;935;-44
2022/09/05 04:41:46;;;;;;;;;;;;;;;9.34;100.00;101651.97;3057026;19;982;-45
2022/09/05 04:42:48;;;;;;;;;;;;;;;9.23;100.00;101640.84;3058037;19;1066;-47
2022/09/05 04:44:00;;;;;;;;;;;;;;;9.18;100.00;101654.31;3057709;19;1682;-46
2022/09/05 04:45:09;;;;;;;;;;;;;;;9.07;100.00;101637.00;3058318;19;1323;-45
2022/09/05 04:46:38;;;;;;;;;;;;;;;9.06;100.00;101648.63;3058537;19;1850;-46
2022/09/05 04:47:51;;;;;;;;;;;;;;;8.94;100.00;101642.78;3058917;19;1383;-48
2022/09/05 04:49:01;;;;;;;;;;;;;;;8.94;100.00;101645.44;3057784;19;1051;-43
2022/09/05 04:50:15;;;;;;;;;;;;;;;8.87;100.00;101643.06;3058071;19;944;-44
2022/09/05 04:51:46;;;;;;;;;;;;;;;8.84;100.00;101637.84;3058555;19;1042;-46
2022/09/05 04:53:08;;;;;;;;;;;;;;;8.87;100.00;101635.97;3058921;19;981;-44
2022/09/05 04:54:25;;;;;;;;;;;;;;;8.83;100.00;101636.97;3057825;19;969;-47
2022/09/05 04:55:44;;;;;;;;;;;;;;;8.85;100.00;101640.47;3058247;19;1005;-44
2022/09/05 04:56:57;;;;;;;;;;;;;;;8.88;100.00;101629.72;3057855;19;971;-44
2022/09/05 04:58:28;;;;;;;;;;;;;;;8.94;100.00;101634.81;3058163;19;912;-46
2022/09/05 04:59:54;;;;;;;;;;;;;;;8.95;100.00;101636.53;3058480;19;967;-46
2022/09/05 05:01:25;;;;;;;;;;;;;;;8.97;100.00;101633.81;3057871;19;1055;-45
2022/09/05 05:02:54;;;;;;;;;;;;;;;9.09;100.00;101637.84;3057602;19;948;-45
2022/09/05 05:04:20;;;;;;;;;;;;;;;9.16;100.00;101634.91;3059509;19;1497;-47
2022/09/05 05:05:50;;;;;;;;;;;;;;;9.20;100.00;101643.63;3059279;19;1900;-44
2022/09/05 05:07:26;;;;;;;;;;;;;;;9.28;100.00;101634.44;3056481;19;1864;-45
2022/09/05 05:08:31;;;;;;;;;;;;;;;9.32;100.00;101640.50;3057971;19;1800;-47
2022/09/05 05:09:44;;;;;;;;;;;;;;;9.34;100.00;101638.66;3058221;19;1400;-44
2022/09/05 05:10:47;;;;;;;;;;;;;;;9.38;100.00;101634.94;3058056;19;1617;-48
2022/09/05 05:12:23;;;;;;;;;;;;;;;9.33;100.00;101628.91;3054073;19;1887;-48
2022/09/05 05:13:48;;;;;;;;;;;;;;;9.48;100.00;101647.00;3058260;19;1913;-49
2022/09/05 05:15:11;;;;;;;;;;;;;;;9.55;100.00;101643.16;3058743;19;1828;-44
2022/09/05 05:16:45;;;;;;;;;;;;;;;9.67;100.00;101644.47;3056397;19;1837;-48
2022/09/05 05:18:29;;;;;;;;;;;;;;;9.77;100.00;101647.66;3056484;19;1571;-47
2022/09/05 05:19:44;;;;;;;;;;;;;;;9.82;100.00;101646.53;3057855;19;1502;-46
2022/09/05 05:21:00;;;;;;;;;;;;;;;9.90;100.00;101649.75;3056606;19;1372;-47
2022/09/05 05:22:02;;;;;;;;;;;;;;;9.93;100.00;101646.09;3057372;19;1874;-46
2022/09/05 05:23:30;;;;;;;;;;;;;;;10.00;100.00;101656.47;3055213;19;1845;-47
2022/09/05 05:24:33;;;;;;;;;;;;;;;10.08;100.00;101650.81;3056299;19;1521;-44
2022/09/05 05:25:47;;;;;;;;;;;;;;;10.15;100.00;101654.94;3057512;19;1282;-48
2022/09/05 05:26:54;;;;;;;;;;;;;;;10.23;100.00;101658.22;3057282;19;1867;-46
2022/09/05 05:28:03;;;;;;;;;;;;;;;10.27;100.00;101648.28;3057961;19;1768;-47
2022/09/05 05:29:48;;;;;;;;;;;;;;;10.36;100.00;101656.78;3057967;19;1848;-47
2022/09/05 05:30:50;;;;;;;;;;;;;;;10.46;100.00;101665.25;3057302;19;1867;-47
2022/09/05 05:32:04;;;;;;;;;;;;;;;10.52;100.00;101656.09;3058011;19;1287;-47
2022/09/05 05:33:11;;;;;;;;;;;;;;;10.59;100.00;101663.81;3058545;19;1543;-48
2022/09/05 05:34:19;;;;;;;;;;;;;;;10.68;100.00;101657.19;3058787;19;1831;-46
2022/09/05 05:35:27;;;;;;;;;;;;;;;10.76;100.00;101663.06;3058354;19;1559;-45
2022/09/05 05:36:34;;;;;;;;;;;;;;;10.80;100.00;101660.19;3057611;19;1829;-47
2022/09/05 05:37:49;;;;;;;;;;;;;;;10.88;100.00;101657.19;3056544;19;1378;-49
2022/09/05 05:38:59;;;;;;;;;;;;;;;10.96;100.00;101660.41;3057005;19;1015;-47
2022/09/05 05:40:16;;;;;;;;;;;;;;;11.03;100.00;101661.84;3057476;19;999;-50
2022/09/05 05:41:22;;;;;;;;;;;;;;;11.08;100.00;101661.66;3056355;19;1937;-49
2022/09/05 05:42:24;;;;;;;;;;;;;;;11.15;100.00;101666.66;3056512;19;1302;-47
2022/09/05 05:43:38;;;;;;;;;;;;;;;11.23;100.00;101668.13;3057943;19;1612;-49
2022/09/05 05:44:47;;;;;;;;;;;;;;;11.31;100.00;101660.63;3057696;19;1007;-47
2022/09/05 05:45:58;;;;;;;;;;;;;;;11.39;100.00;101677.16;3057498;19;857;-46
2022/09/05 05:47:09;;;;;;;;;;;;;;;11.49;100.00;101675.78;3056984;19;1850;-47
2022/09/05 05:48:17;;;;;;;;;;;;;;;11.57;100.00;101670.97;3057953;19;880;-46
2022/09/05 05:49:22;;;;;;;;;;;;;;;11.65;100.00;101671.47;3058034;19;879;-50
2022/09/05 05:50:41;;;;;;;;;;;;;;;11.72;100.00;101674.69;3057767;19;956;-46
2022/09/05 05:51:54;;;;;;;;;;;;;;;11.78;100.00;101675.31;3057834;19;1031;-47
2022/09/05 05:53:24;;;;;;;;;;;;;;;11.85;100.00;101678.56;3057162;19;956;-49
2022/09/05 05:54:59;;;;;;;;;;;;;;;11.99;100.00;101691.28;3057724;19;936;-49
2022/09/05 05:56:35;;;;;;;;;;;;;;;12.10;100.00;101699.66;3056734;19;952;-46
2022/09/05 05:57:40;;;;;;;;;;;;;;;12.18;100.00;101701.03;3057590;19;908;-51
2022/09/05 05:59:08;;;;;;;;;;;;;;;12.26;100.00;101698.84;3058014;19;911;-48
2022/09/05 06:00:21;;;;;;;;;;;;;;;12.35;100.00;101700.19;3056899;19;1606;-50
2022/09/05 06:01:47;;;;;;;;;;;;;;;12.41;100.00;101705.25;3057799;19;989;-51
2022/09/05 06:02:56;;;;;;;;;;;;;;;12.49;100.00;101703.03;3057574;19;1761;-50
2022/09/05 06:04:39;;;;;;;;;;;;;;;12.60;100.00;101711.41;3056782;19;1039;-48
2022/09/05 06:06:00;;;;;;;;;;;;;;;12.72;100.00;101709.03;3057716;19;1011;-48
2022/09/05 06:07:24;;;;;;;;;;;;;;;12.79;100.00;101714.03;3057684;19;940;-48
2022/09/05 06:08:26;;;;;;;;;;;;;;;12.87;100.00;101713.63;3057469;19;964;-48
2022/09/05 06:09:53;;;;;;;;;;;;;;;12.97;100.00;101718.44;3057677;19;1047;-48
2022/09/05 06:11:33;;;;;;;;;;;;;;;13.06;100.00;101717.06;3056603;19;1253;-49
2022/09/05 06:13:01;;;;;;;;;;;;;;;13.13;100.00;101715.81;3057174;19;980;-49
2022/09/05 06:14:32;;;;;;;;;;;;;;;13.25;100.00;101719.69;3057531;19;940;-47
2022/09/05 06:16:14;;;;;;;;;;;;;;;13.35;100.00;101726.31;3056823;19;936;-48
2022/09/05 06:17:37;;;;;;;;;;;;;;;13.42;100.00;101727.69;3056709;19;1011;-47
2022/09/05 06:18:58;;;;;;;;;;;;;;;13.50;100.00;101725.47;3057381;19;980;-50
2022/09/05 06:20:16;;;;;;;;;;;;;;;13.57;100.00;101723.31;3057604;19;960;-50
2022/09/05 06:21:53;;;;;;;;;;;;;;;13.72;100.00;101719.81;3056429;19;924;-49
2022/09/05 06:23:25;;;;;;;;;;;;;;;13.82;100.00;101721.03;3057345;19;968;-45
2022/09/05 06:24:59;;;;;;;;;;;;;;;13.93;100.00;101723.13;3056894;19;813;-50
2022/09/05 06:26:40;;;;;;;;;;;;;;;14.07;100.00;101732.13;3057523;19;1015;-44
2022/09/05 06:27:54;;;;;;;;;;;;;;;14.18;100.00;101727.97;3057247;19;1864;-47
2022/09/05 06:29:19;;;;;;;;;;;;;;;14.28;100.00;101726.47;3056353;19;983;-47
2022/09/05 06:30:21;;;;;;;;;;;;;;;14.35;100.00;101726.06;3057109;19;888;-47
2022/09/05 06:31:26;;;;;;;;;;;;;;;14.38;100.00;101725.00;3056540;19;979;-47
2022/09/05 06:32:45;;;;;;;;;;;;;;;14.44;100.00;101724.69;3056858;19;849;-49
2022/09/05 06:34:10;;;;;;;;;;;;;;;14.53;100.00;101734.91;3057492;19;919;-45
2022/09/05 06:35:40;;;;;;;;;;;;;;;14.59;100.00;101726.50;3056551;19;877;-51
2022/09/05 06:36:57;;;;;;;;;;;;;;;14.59;100.00;101731.88;3057098;19;948;-47
2022/09/05 06:38:14;;;;;;;;;;;;;;;14.75;100.00;101739.88;3057315;19;1556;-50
2022/09/05 06:39:26;;;;;;;;;;;;;;;14.87;100.00;101749.03;3057519;19;911;-48
2022/09/05 06:40:32;;;;;;;;;;;;;;;14.94;100.00;101742.34;3057066;19;925;-46
2022/09/05 06:41:41;;;;;;;;;;;;;;;15.06;100.00;101739.78;3056615;19;1403;-47
2022/09/05 06:42:49;;;;;;;;;;;;;;;15.16;100.00;101740.09;3057026;19;915;-51